createdAt,value
2023-02-22T00:00:07.275Z,76.00
2023-02-22T00:00:16.591Z,76.00
2023-02-22T00:00:25.874Z,76.00
2023-02-22T00:00:35.163Z,76.00
2023-02-22T00:00:44.470Z,76.00
2023-02-22T00:00:53.762Z,76.10
2023-02-22T00:01:03.068Z,76.10
2023-02-22T00:01:12.384Z,76.10
2023-02-22T00:01:21.684Z,76.10
2023-02-22T00:01:30.981Z,76.10
2023-02-22T00:01:40.278Z,76.20
2023-02-22T00:01:49.589Z,76.10
2023-02-22T00:01:58.896Z,76.10
2023-02-22T00:02:17.491Z,76.10
2023-02-22T00:02:26.749Z,76.00
2023-02-22T00:02:36.047Z,76.10
2023-02-22T00:02:45.397Z,76.10
2023-02-22T00:02:54.635Z,76.10
2023-02-22T00:03:03.969Z,76.20
2023-02-22T00:03:13.264Z,76.20
2023-02-22T00:03:22.484Z,76.20
2023-02-22T00:03:31.756Z,76.20
2023-02-22T00:03:41.055Z,76.20
2023-02-22T00:03:50.339Z,76.20
2023-02-22T00:03:59.627Z,76.20
2023-02-22T00:04:08.912Z,76.20
2023-02-22T00:04:27.551Z,76.20
2023-02-22T00:04:36.839Z,76.20
2023-02-22T00:04:46.129Z,76.30
2023-02-22T00:04:55.412Z,76.30
2023-02-22T00:05:04.724Z,76.30
2023-02-22T00:05:14.036Z,76.30
2023-02-22T00:05:23.331Z,76.30
2023-02-22T00:05:32.629Z,76.30
2023-02-22T00:05:41.919Z,76.30
2023-02-22T00:05:51.241Z,76.40
2023-02-22T00:06:00.549Z,76.40
2023-02-22T00:06:09.840Z,76.40
2023-02-22T00:06:19.131Z,76.40
2023-02-22T00:06:28.447Z,76.40
2023-02-22T00:06:47.069Z,76.40
2023-02-22T00:06:56.373Z,76.40
2023-02-22T00:07:05.666Z,76.40
2023-02-22T00:07:14.950Z,76.40
2023-02-22T00:07:24.252Z,76.40
2023-02-22T00:07:33.553Z,76.50
2023-02-22T00:07:42.836Z,76.50
2023-02-22T00:07:52.144Z,76.50
2023-02-22T00:08:01.411Z,76.50
2023-02-22T00:08:10.701Z,76.50
2023-02-22T00:08:19.990Z,76.50
2023-02-22T00:08:29.258Z,76.60
2023-02-22T00:08:38.539Z,76.60
2023-02-22T00:08:57.134Z,76.60
2023-02-22T00:09:06.435Z,76.60
2023-02-22T00:09:15.729Z,76.70
2023-02-22T00:09:25.022Z,76.70
2023-02-22T00:09:34.358Z,76.70
2023-02-22T00:09:43.644Z,76.70
2023-02-22T00:09:52.931Z,76.70
2023-02-22T00:10:02.261Z,76.70
2023-02-22T00:10:11.578Z,76.70
2023-02-22T00:10:20.862Z,76.70
2023-02-22T00:10:30.153Z,76.80
2023-02-22T00:10:39.481Z,76.80
2023-02-22T00:10:48.784Z,76.80
2023-02-22T00:11:07.427Z,76.80
2023-02-22T00:11:17.024Z,76.80
2023-02-22T00:11:26.026Z,76.80
2023-02-22T00:11:35.310Z,76.80
2023-02-22T00:11:44.593Z,76.80
2023-02-22T00:11:53.893Z,76.80
2023-02-22T00:12:03.202Z,76.80
2023-02-22T00:12:12.501Z,76.80
2023-02-22T00:12:21.792Z,76.80
2023-02-22T00:12:31.096Z,76.80
2023-02-22T00:12:40.374Z,76.90
2023-02-22T00:12:49.660Z,76.80
2023-02-22T00:12:58.961Z,77.00
2023-02-22T00:13:17.558Z,76.90
2023-02-22T00:13:26.857Z,76.80
2023-02-22T00:13:36.155Z,76.90
2023-02-22T00:13:45.454Z,76.90
2023-02-22T00:13:54.742Z,76.90
2023-02-22T00:14:04.064Z,76.80
2023-02-22T00:14:13.350Z,76.80
2023-02-22T00:14:22.652Z,76.80
2023-02-22T00:14:31.961Z,76.80
2023-02-22T00:14:41.280Z,76.80
2023-02-22T00:14:50.575Z,76.80
2023-02-22T00:14:59.879Z,76.80
2023-02-22T00:15:09.168Z,76.80
2023-02-22T00:15:18.460Z,76.80
2023-02-22T00:15:37.029Z,76.80
2023-02-22T00:15:46.317Z,76.80
2023-02-22T00:15:55.615Z,76.80
2023-02-22T00:16:05.029Z,76.80
2023-02-22T00:16:14.284Z,76.90
2023-02-22T00:16:23.567Z,76.80
2023-02-22T00:16:32.901Z,76.80
2023-02-22T00:16:42.268Z,76.80
2023-02-22T00:16:51.459Z,76.80
2023-02-22T00:17:00.832Z,76.80
2023-02-22T00:17:10.130Z,76.80
2023-02-22T00:17:19.442Z,76.80
2023-02-22T00:17:28.736Z,76.80
2023-02-22T00:17:47.341Z,76.80
2023-02-22T00:17:56.644Z,76.70
2023-02-22T00:18:05.940Z,76.80
2023-02-22T00:18:15.222Z,76.80
2023-02-22T00:18:24.516Z,76.80
2023-02-22T00:18:33.815Z,76.80
2023-02-22T00:18:43.104Z,76.80
2023-02-22T00:18:52.423Z,76.80
2023-02-22T00:19:01.713Z,76.80
2023-02-22T00:19:11.093Z,76.80
2023-02-22T00:19:20.378Z,76.80
2023-02-22T00:19:29.663Z,76.80
2023-02-22T00:19:38.945Z,76.80
2023-02-22T00:19:57.525Z,76.80
2023-02-22T00:20:06.845Z,76.80
2023-02-22T00:20:18.455Z,76.80
2023-02-22T00:20:25.440Z,76.80
2023-02-22T00:20:34.733Z,76.80
2023-02-22T00:20:44.048Z,76.80
2023-02-22T00:20:53.333Z,76.80
2023-02-22T00:21:02.655Z,76.80
2023-02-22T00:21:11.961Z,76.80
2023-02-22T00:21:24.048Z,76.80
2023-02-22T00:21:33.388Z,76.80
2023-02-22T00:21:42.687Z,76.80
2023-02-22T00:21:51.982Z,76.80
2023-02-22T00:22:01.290Z,76.80
2023-02-22T00:22:10.607Z,76.80
2023-02-22T00:22:19.919Z,76.80
2023-02-22T00:22:29.247Z,76.80
2023-02-22T00:22:38.558Z,76.80
2023-02-22T00:22:57.145Z,76.80
2023-02-22T00:23:06.458Z,76.80
2023-02-22T00:23:15.771Z,76.70
2023-02-22T00:23:25.075Z,76.80
2023-02-22T00:23:34.372Z,76.70
2023-02-22T00:23:43.670Z,76.80
2023-02-22T00:23:52.944Z,76.80
2023-02-22T00:24:02.247Z,76.80
2023-02-22T00:24:11.581Z,76.80
2023-02-22T00:24:20.878Z,76.80
2023-02-22T00:24:30.158Z,76.90
2023-02-22T00:24:39.496Z,76.80
2023-02-22T00:24:48.764Z,76.80
2023-02-22T00:25:07.399Z,76.90
2023-02-22T00:25:16.705Z,76.80
2023-02-22T00:25:26.010Z,76.90
2023-02-22T00:25:35.307Z,76.90
2023-02-22T00:25:44.597Z,76.90
2023-02-22T00:25:53.879Z,76.90
2023-02-22T00:26:03.179Z,76.90
2023-02-22T00:26:12.456Z,76.90
2023-02-22T00:26:21.748Z,76.80
2023-02-22T00:26:31.062Z,76.90
2023-02-22T00:26:40.355Z,76.90
2023-02-22T00:26:49.676Z,76.80
2023-02-22T00:26:58.943Z,76.90
2023-02-22T00:27:17.554Z,76.80
2023-02-22T00:27:26.860Z,76.80
2023-02-22T00:27:36.187Z,76.90
2023-02-22T00:27:45.467Z,76.90
2023-02-22T00:27:54.765Z,76.90
2023-02-22T00:28:04.061Z,76.90
2023-02-22T00:28:13.350Z,76.90
2023-02-22T00:28:22.636Z,76.90
2023-02-22T00:28:31.937Z,76.90
2023-02-22T00:28:41.244Z,76.90
2023-02-22T00:28:50.539Z,76.90
2023-02-22T00:28:59.824Z,76.90
2023-02-22T00:29:09.110Z,76.90
2023-02-22T00:29:18.383Z,76.90
2023-02-22T00:29:37.000Z,76.90
2023-02-22T00:29:46.306Z,76.90
2023-02-22T00:29:55.597Z,76.90
2023-02-22T00:30:04.900Z,76.90
2023-02-22T00:30:14.300Z,76.90
2023-02-22T00:30:23.612Z,76.90
2023-02-22T00:30:32.919Z,76.90
2023-02-22T00:30:42.204Z,76.90
2023-02-22T00:30:51.442Z,76.90
2023-02-22T00:31:00.732Z,76.90
2023-02-22T00:31:10.050Z,76.90
2023-02-22T00:31:19.944Z,77.00
2023-02-22T00:31:28.656Z,77.00
2023-02-22T00:31:47.286Z,77.00
2023-02-22T00:31:56.665Z,77.00
2023-02-22T00:32:06.027Z,77.00
2023-02-22T00:32:15.343Z,77.00
2023-02-22T00:32:24.565Z,77.00
2023-02-22T00:32:33.817Z,77.00
2023-02-22T00:32:43.207Z,77.00
2023-02-22T00:32:52.402Z,76.90
2023-02-22T00:33:01.749Z,76.90
2023-02-22T00:33:11.047Z,76.90
2023-02-22T00:33:20.371Z,76.90
2023-02-22T00:33:29.653Z,76.90
2023-02-22T00:33:38.959Z,76.90
2023-02-22T00:33:57.549Z,76.90
2023-02-22T00:34:06.850Z,76.90
2023-02-22T00:34:16.193Z,76.90
2023-02-22T00:34:25.478Z,76.90
2023-02-22T00:34:34.773Z,77.00
2023-02-22T00:34:44.092Z,76.90
2023-02-22T00:34:53.406Z,77.00
2023-02-22T00:35:02.735Z,77.00
2023-02-22T00:35:12.044Z,76.90
2023-02-22T00:35:21.337Z,77.00
2023-02-22T00:35:30.651Z,77.00
2023-02-22T00:35:39.925Z,77.00
2023-02-22T00:35:49.223Z,77.00
2023-02-22T00:35:58.527Z,77.00
2023-02-22T00:36:17.131Z,77.00
2023-02-22T00:36:26.446Z,77.00
2023-02-22T00:36:35.760Z,77.00
2023-02-22T00:36:45.030Z,76.90
2023-02-22T00:36:54.322Z,77.00
2023-02-22T00:37:03.627Z,77.00
2023-02-22T00:37:12.900Z,77.00
2023-02-22T00:37:22.204Z,77.00
2023-02-22T00:37:31.522Z,77.00
2023-02-22T00:37:40.807Z,77.00
2023-02-22T00:37:50.108Z,77.00
2023-02-22T00:37:59.435Z,77.00
2023-02-22T00:38:08.729Z,77.10
2023-02-22T00:38:27.402Z,77.00
2023-02-22T00:38:36.704Z,77.00
2023-02-22T00:38:46.026Z,77.10
2023-02-22T00:38:55.343Z,77.10
2023-02-22T00:39:04.639Z,77.10
2023-02-22T00:39:13.941Z,77.10
2023-02-22T00:39:23.257Z,77.10
2023-02-22T00:39:32.590Z,77.10
2023-02-22T00:39:41.890Z,77.10
2023-02-22T00:39:51.229Z,77.10
2023-02-22T00:40:00.508Z,77.00
2023-02-22T00:40:09.791Z,77.10
2023-02-22T00:40:19.119Z,77.20
2023-02-22T00:40:28.450Z,77.10
2023-02-22T00:40:47.067Z,77.20
2023-02-22T00:40:56.411Z,77.00
2023-02-22T00:41:05.631Z,77.20
2023-02-22T00:41:15.407Z,77.10
2023-02-22T00:41:24.253Z,77.10
2023-02-22T00:41:33.567Z,77.10
2023-02-22T00:41:42.969Z,77.10
2023-02-22T00:41:52.257Z,77.10
2023-02-22T00:42:01.504Z,77.10
2023-02-22T00:42:10.803Z,77.10
2023-02-22T00:42:20.086Z,77.10
2023-02-22T00:42:29.373Z,77.10
2023-02-22T00:42:38.673Z,77.10
2023-02-22T00:42:57.312Z,77.20
2023-02-22T00:43:06.639Z,77.20
2023-02-22T00:43:15.959Z,77.20
2023-02-22T00:43:25.283Z,77.10
2023-02-22T00:43:34.564Z,77.20
2023-02-22T00:43:43.901Z,77.20
2023-02-22T00:43:53.218Z,77.20
2023-02-22T00:44:02.522Z,77.20
2023-02-22T00:44:11.831Z,77.20
2023-02-22T00:44:21.179Z,77.20
2023-02-22T00:44:30.476Z,77.20
2023-02-22T00:44:39.786Z,77.20
2023-02-22T00:44:49.111Z,77.20
2023-02-22T00:44:58.404Z,77.20
2023-02-22T00:45:17.033Z,77.20
2023-02-22T00:45:26.344Z,77.20
2023-02-22T00:45:35.765Z,77.20
2023-02-22T00:45:44.978Z,77.20
2023-02-22T00:45:54.305Z,77.20
2023-02-22T00:46:03.702Z,77.20
2023-02-22T00:46:12.934Z,77.20
2023-02-22T00:46:22.174Z,77.20
2023-02-22T00:46:31.498Z,77.20
2023-02-22T00:46:40.815Z,77.20
2023-02-22T00:46:50.100Z,77.20
2023-02-22T00:46:59.398Z,77.20
2023-02-22T00:47:08.741Z,77.20
2023-02-22T00:47:27.289Z,77.20
2023-02-22T00:47:36.602Z,77.20
2023-02-22T00:47:45.877Z,77.20
2023-02-22T00:47:55.264Z,77.30
2023-02-22T00:48:04.582Z,77.20
2023-02-22T00:48:13.848Z,77.30
2023-02-22T00:48:25.999Z,77.30
2023-02-22T00:48:33.011Z,77.30
2023-02-22T00:48:42.295Z,77.30
2023-02-22T00:48:51.602Z,77.40
2023-02-22T00:49:00.887Z,77.40
2023-02-22T00:49:10.208Z,77.30
2023-02-22T00:49:19.514Z,77.40
2023-02-22T00:49:28.811Z,77.30
2023-02-22T00:49:47.428Z,77.30
2023-02-22T00:49:56.712Z,77.30
2023-02-22T00:50:06.101Z,77.30
2023-02-22T00:50:15.404Z,77.20
2023-02-22T00:50:24.732Z,77.30
2023-02-22T00:50:33.989Z,77.30
2023-02-22T00:50:43.304Z,77.30
2023-02-22T00:50:52.602Z,77.30
2023-02-22T00:51:01.918Z,77.30
2023-02-22T00:51:11.184Z,77.30
2023-02-22T00:51:20.476Z,77.40
2023-02-22T00:51:29.781Z,77.40
2023-02-22T00:51:39.082Z,77.40
2023-02-22T00:51:48.386Z,77.40
2023-02-22T00:52:06.984Z,77.40
2023-02-22T00:52:16.291Z,77.40
2023-02-22T00:52:25.578Z,77.40
2023-02-22T00:52:34.888Z,77.50
2023-02-22T00:52:44.178Z,77.50
2023-02-22T00:52:53.470Z,77.50
2023-02-22T00:53:02.765Z,77.50
2023-02-22T00:53:12.045Z,77.50
2023-02-22T00:53:21.343Z,77.50
2023-02-22T00:53:30.644Z,77.50
2023-02-22T00:53:40.002Z,77.50
2023-02-22T00:53:49.318Z,77.50
2023-02-22T00:53:58.633Z,77.50
2023-02-22T00:54:17.261Z,77.50
2023-02-22T00:54:26.555Z,77.50
2023-02-22T00:54:35.892Z,77.40
2023-02-22T00:54:45.214Z,77.50
2023-02-22T00:54:54.522Z,77.40
2023-02-22T00:55:03.820Z,77.40
2023-02-22T00:55:45.249Z,77.40
2023-02-22T00:55:54.567Z,77.20
2023-02-22T00:56:03.860Z,77.40
2023-02-22T00:56:13.159Z,77.40
2023-02-22T00:56:22.480Z,77.40
2023-02-22T00:56:31.778Z,77.40
2023-02-22T00:56:41.073Z,77.40
2023-02-22T00:56:50.434Z,77.40
2023-02-22T00:56:59.677Z,77.30
2023-02-22T00:57:09.010Z,77.40
2023-02-22T00:57:18.560Z,77.40
2023-02-22T00:57:27.656Z,77.30
2023-02-22T00:57:36.967Z,77.40
2023-02-22T00:57:46.270Z,77.40
2023-02-22T00:57:55.587Z,77.50
2023-02-22T00:58:04.892Z,77.50
2023-02-22T00:58:14.228Z,77.60
2023-02-22T00:58:23.542Z,77.60
2023-02-22T00:58:32.852Z,77.70
2023-02-22T00:58:42.146Z,77.70
2023-02-22T00:58:51.448Z,77.80
2023-02-22T00:59:00.747Z,77.90
2023-02-22T00:59:10.052Z,78.00
2023-02-22T00:59:19.351Z,78.10
2023-02-22T00:59:28.632Z,78.20
2023-02-22T00:59:37.933Z,78.20
2023-02-22T00:59:47.240Z,78.20
2023-02-22T00:59:56.526Z,78.30
2023-02-22T01:00:05.833Z,78.50
2023-02-22T01:00:15.149Z,78.50
2023-02-22T01:00:24.439Z,78.60
2023-02-22T01:00:33.732Z,78.80
2023-02-22T01:00:43.048Z,78.90
2023-02-22T01:00:52.385Z,79.00
2023-02-22T01:01:01.657Z,79.00
2023-02-22T01:01:10.981Z,79.10
2023-02-22T01:01:20.284Z,79.20
2023-02-22T01:01:29.571Z,79.40
2023-02-22T01:01:38.905Z,79.50
2023-02-22T01:01:57.523Z,79.80
2023-02-22T01:02:06.821Z,79.90
2023-02-22T01:02:16.147Z,80.00
2023-02-22T01:02:25.448Z,80.10
2023-02-22T01:02:34.727Z,80.20
2023-02-22T01:02:44.016Z,80.40
2023-02-22T01:02:53.309Z,80.40
2023-02-22T01:03:02.613Z,80.50
2023-02-22T01:03:11.906Z,80.60
2023-02-22T01:03:21.192Z,80.70
2023-02-22T01:03:30.496Z,80.90
2023-02-22T01:03:39.789Z,80.90
2023-02-22T01:03:49.110Z,81.10
2023-02-22T01:03:58.388Z,81.20
2023-02-22T01:04:16.994Z,81.40
2023-02-22T01:04:26.292Z,81.60
2023-02-22T01:04:35.595Z,81.60
2023-02-22T01:04:44.910Z,81.80
2023-02-22T01:04:54.218Z,81.80
2023-02-22T01:05:03.532Z,81.90
2023-02-22T01:05:12.853Z,82.00
2023-02-22T01:05:22.127Z,82.00
2023-02-22T01:05:31.417Z,82.20
2023-02-22T01:05:40.741Z,82.30
2023-02-22T01:05:50.039Z,82.30
2023-02-22T01:05:59.369Z,82.30
2023-02-22T01:06:08.685Z,82.50
2023-02-22T01:06:27.303Z,82.70
2023-02-22T01:06:36.590Z,82.80
2023-02-22T01:06:45.888Z,82.90
2023-02-22T01:06:55.196Z,83.00
2023-02-22T01:07:04.527Z,83.00
2023-02-22T01:07:13.805Z,83.10
2023-02-22T01:07:23.095Z,83.20
2023-02-22T01:07:32.398Z,83.30
2023-02-22T01:07:41.731Z,83.40
2023-02-22T01:07:51.037Z,83.40
2023-02-22T01:08:00.337Z,83.60
2023-02-22T01:08:09.718Z,83.70
2023-02-22T01:08:18.923Z,83.80
2023-02-22T01:08:37.510Z,83.90
2023-02-22T01:08:46.834Z,83.90
2023-02-22T01:08:56.138Z,84.10
2023-02-22T01:09:05.452Z,84.10
2023-02-22T01:09:14.754Z,84.20
2023-02-22T01:09:24.075Z,84.30
2023-02-22T01:09:33.381Z,84.40
2023-02-22T01:09:42.731Z,84.50
2023-02-22T01:09:52.037Z,84.70
2023-02-22T01:10:01.394Z,84.90
2023-02-22T01:10:10.737Z,84.90
2023-02-22T01:10:20.042Z,85.00
2023-02-22T01:10:29.339Z,85.20
2023-02-22T01:10:38.661Z,85.20
2023-02-22T01:10:57.254Z,85.40
2023-02-22T01:11:06.570Z,85.30
2023-02-22T01:11:16.271Z,85.60
2023-02-22T01:11:25.204Z,85.60
2023-02-22T01:11:34.516Z,85.60
2023-02-22T01:11:43.824Z,85.60
2023-02-22T01:11:53.120Z,85.70
2023-02-22T01:12:02.442Z,85.70
2023-02-22T01:12:11.753Z,85.80
2023-02-22T01:12:21.059Z,85.90
2023-02-22T01:12:30.341Z,86.00
2023-02-22T01:12:39.653Z,86.10
2023-02-22T01:12:48.971Z,86.20
2023-02-22T01:13:07.575Z,86.20
2023-02-22T01:13:16.890Z,86.40
2023-02-22T01:13:26.181Z,86.40
2023-02-22T01:13:35.465Z,86.60
2023-02-22T01:13:44.766Z,86.50
2023-02-22T01:13:54.095Z,86.60
2023-02-22T01:14:03.378Z,86.70
2023-02-22T01:14:12.697Z,86.80
2023-02-22T01:14:22.009Z,86.80
2023-02-22T01:14:31.340Z,86.90
2023-02-22T01:14:40.654Z,87.00
2023-02-22T01:14:50.016Z,87.00
2023-02-22T01:14:59.314Z,87.10
2023-02-22T01:15:08.637Z,87.20
2023-02-22T01:15:27.305Z,87.20
2023-02-22T01:15:36.613Z,87.30
2023-02-22T01:15:45.935Z,87.40
2023-02-22T01:15:55.242Z,87.50
2023-02-22T01:16:04.550Z,87.40
2023-02-22T01:16:13.910Z,87.60
2023-02-22T01:16:23.442Z,87.60
2023-02-22T01:16:32.623Z,87.70
2023-02-22T01:16:41.883Z,87.80
2023-02-22T01:16:51.309Z,87.80
2023-02-22T01:17:00.477Z,87.90
2023-02-22T01:17:09.813Z,87.80
2023-02-22T01:17:19.111Z,88.00
2023-02-22T01:17:28.423Z,88.10
2023-02-22T01:17:47.051Z,88.20
2023-02-22T01:17:56.365Z,88.20
2023-02-22T01:18:05.656Z,88.30
2023-02-22T01:18:14.952Z,88.30
2023-02-22T01:18:24.253Z,88.40
2023-02-22T01:18:33.551Z,88.40
2023-02-22T01:18:42.944Z,88.40
2023-02-22T01:18:52.245Z,88.50
2023-02-22T01:19:01.582Z,88.50
2023-02-22T01:19:10.887Z,88.60
2023-02-22T01:19:20.211Z,88.70
2023-02-22T01:19:29.486Z,88.70
2023-02-22T01:19:38.781Z,88.70
2023-02-22T01:19:57.416Z,88.90
2023-02-22T01:20:06.738Z,88.90
2023-02-22T01:20:16.059Z,87.40
2023-02-22T01:20:25.365Z,89.00
2023-02-22T01:20:34.698Z,89.00
2023-02-22T01:20:44.022Z,89.10
2023-02-22T01:20:53.325Z,89.10
2023-02-22T01:21:02.706Z,89.20
2023-02-22T01:21:12.005Z,89.20
2023-02-22T01:21:21.304Z,89.30
2023-02-22T01:21:30.663Z,89.30
2023-02-22T01:21:39.984Z,89.40
2023-02-22T01:21:49.303Z,89.40
2023-02-22T01:21:58.621Z,89.40
2023-02-22T01:22:17.259Z,89.50
2023-02-22T01:22:26.577Z,89.50
2023-02-22T01:22:35.886Z,89.50
2023-02-22T01:22:45.214Z,89.60
2023-02-22T01:22:54.538Z,89.50
2023-02-22T01:23:03.851Z,89.80
2023-02-22T01:23:13.131Z,89.70
2023-02-22T01:23:22.421Z,89.80
2023-02-22T01:23:31.733Z,89.80
2023-02-22T01:23:41.060Z,89.80
2023-02-22T01:23:50.400Z,89.80
2023-02-22T01:23:59.681Z,89.90
2023-02-22T01:24:09.010Z,88.30
2023-02-22T01:24:27.647Z,89.90
2023-02-22T01:24:36.937Z,90.00
2023-02-22T01:24:46.253Z,90.00
2023-02-22T01:24:55.569Z,90.00
2023-02-22T01:25:04.902Z,90.10
2023-02-22T01:25:14.217Z,90.00
2023-02-22T01:25:23.525Z,90.10
2023-02-22T01:25:32.839Z,90.10
2023-02-22T01:25:42.139Z,90.10
2023-02-22T01:25:51.417Z,90.20
2023-02-22T01:26:00.705Z,90.10
2023-02-22T01:26:10.008Z,90.10
2023-02-22T01:26:19.341Z,90.20
2023-02-22T01:26:28.650Z,90.20
2023-02-22T01:26:47.319Z,90.20
2023-02-22T01:26:56.636Z,90.20
2023-02-22T01:27:05.941Z,90.20
2023-02-22T01:27:15.253Z,90.30
2023-02-22T01:27:24.560Z,90.30
2023-02-22T01:27:33.850Z,90.30
2023-02-22T01:27:43.139Z,90.40
2023-02-22T01:27:52.451Z,90.40
2023-02-22T01:28:01.750Z,90.30
2023-02-22T01:28:11.086Z,90.40
2023-02-22T01:28:20.443Z,90.40
2023-02-22T01:28:29.716Z,90.40
2023-02-22T01:28:39.017Z,90.50
2023-02-22T01:28:57.648Z,90.50
2023-02-22T01:29:06.956Z,90.50
2023-02-22T01:29:16.287Z,90.60
2023-02-22T01:29:25.599Z,90.60
2023-02-22T01:29:34.990Z,90.60
2023-02-22T01:29:44.327Z,90.60
2023-02-22T01:29:53.647Z,90.60
2023-02-22T01:30:02.968Z,90.70
2023-02-22T01:30:12.367Z,90.70
2023-02-22T01:30:21.681Z,90.70
2023-02-22T01:30:31.075Z,90.70
2023-02-22T01:30:40.470Z,90.80
2023-02-22T01:30:49.544Z,90.80
2023-02-22T01:30:58.847Z,90.80
2023-02-22T01:31:17.731Z,90.90
2023-02-22T01:31:26.674Z,90.90
2023-02-22T01:31:35.992Z,91.00
2023-02-22T01:31:45.239Z,91.00
2023-02-22T01:31:54.563Z,91.00
2023-02-22T01:32:03.842Z,91.10
2023-02-22T01:32:13.184Z,91.10
2023-02-22T01:32:22.461Z,91.10
2023-02-22T01:32:31.703Z,91.10
2023-02-22T01:32:40.986Z,91.00
2023-02-22T01:32:50.288Z,91.00
2023-02-22T01:32:59.573Z,91.00
2023-02-22T01:33:08.877Z,90.90
2023-02-22T01:33:27.471Z,90.90
2023-02-22T01:33:36.787Z,90.80
2023-02-22T01:33:46.177Z,90.80
2023-02-22T01:33:55.460Z,90.80
2023-02-22T01:34:04.753Z,90.70
2023-02-22T01:34:14.044Z,90.60
2023-02-22T01:34:23.350Z,90.60
2023-02-22T01:34:32.652Z,90.50
2023-02-22T01:34:41.970Z,90.50
2023-02-22T01:34:51.257Z,90.40
2023-02-22T01:35:00.547Z,90.30
2023-02-22T01:35:09.852Z,90.30
2023-02-22T01:35:19.152Z,90.20
2023-02-22T01:35:28.452Z,90.10
2023-02-22T01:35:47.045Z,90.00
2023-02-22T01:35:56.445Z,89.90
2023-02-22T01:36:05.671Z,89.70
2023-02-22T01:36:14.968Z,89.50
2023-02-22T01:36:24.260Z,89.30
2023-02-22T01:36:33.579Z,89.20
2023-02-22T01:36:42.912Z,89.10
2023-02-22T01:36:52.156Z,88.90
2023-02-22T01:37:01.471Z,88.70
2023-02-22T01:37:10.752Z,88.60
2023-02-22T01:37:20.051Z,88.50
2023-02-22T01:37:29.352Z,88.30
2023-02-22T01:37:38.665Z,88.20
2023-02-22T01:37:57.293Z,87.90
2023-02-22T01:38:06.620Z,87.90
2023-02-22T01:38:15.910Z,87.70
2023-02-22T01:38:25.210Z,87.50
2023-02-22T01:38:34.580Z,87.40
2023-02-22T01:38:43.893Z,87.30
2023-02-22T01:38:53.254Z,87.10
2023-02-22T01:39:02.504Z,87.00
2023-02-22T01:39:11.784Z,86.80
2023-02-22T01:39:21.090Z,86.70
2023-02-22T01:39:30.380Z,86.60
2023-02-22T01:39:39.702Z,86.50
2023-02-22T01:39:48.982Z,86.30
2023-02-22T01:40:07.655Z,86.00
2023-02-22T01:40:16.993Z,85.90
2023-02-22T01:40:26.364Z,85.70
2023-02-22T01:40:35.679Z,85.60
2023-02-22T01:40:44.996Z,85.50
2023-02-22T01:40:54.312Z,85.30
2023-02-22T01:41:03.603Z,85.20
2023-02-22T01:41:12.894Z,85.10
2023-02-22T01:41:22.204Z,84.90
2023-02-22T01:41:31.500Z,84.80
2023-02-22T01:41:40.787Z,84.60
2023-02-22T01:41:50.094Z,84.70
2023-02-22T01:41:59.413Z,84.50
2023-02-22T01:42:08.734Z,84.40
2023-02-22T01:42:27.328Z,84.20
2023-02-22T01:42:36.662Z,84.20
2023-02-22T01:42:45.977Z,84.10
2023-02-22T01:42:55.300Z,84.00
2023-02-22T01:43:04.595Z,84.00
2023-02-22T01:43:13.894Z,83.90
2023-02-22T01:43:23.185Z,83.80
2023-02-22T01:43:32.528Z,83.70
2023-02-22T01:43:41.824Z,83.60
2023-02-22T01:43:51.102Z,83.50
2023-02-22T01:44:00.380Z,83.30
2023-02-22T01:44:09.675Z,83.20
2023-02-22T01:44:18.984Z,83.20
2023-02-22T01:44:37.558Z,83.30
2023-02-22T01:44:46.853Z,83.30
2023-02-22T01:44:56.172Z,83.20
2023-02-22T01:45:05.470Z,83.10
2023-02-22T01:45:14.790Z,83.00
2023-02-22T01:45:24.110Z,82.90
2023-02-22T01:45:33.393Z,82.80
2023-02-22T01:45:42.775Z,82.80
2023-02-22T01:45:52.003Z,82.70
2023-02-22T01:46:01.329Z,82.70
2023-02-22T01:46:10.638Z,82.70
2023-02-22T01:46:19.908Z,82.70
2023-02-22T01:46:29.178Z,82.60
2023-02-22T01:46:38.456Z,82.40
2023-02-22T01:46:57.084Z,82.20
2023-02-22T01:47:06.371Z,82.10
2023-02-22T01:47:15.665Z,82.10
2023-02-22T01:47:24.960Z,82.00
2023-02-22T01:47:34.258Z,82.00
2023-02-22T01:47:43.576Z,81.90
2023-02-22T01:47:52.935Z,81.90
2023-02-22T01:48:02.222Z,81.90
2023-02-22T01:48:11.545Z,81.80
2023-02-22T01:48:20.841Z,81.80
2023-02-22T01:48:30.119Z,81.70
2023-02-22T01:48:39.428Z,81.70
2023-02-22T01:48:48.703Z,81.60
2023-02-22T01:49:07.324Z,81.40
2023-02-22T01:49:16.601Z,81.30
2023-02-22T01:49:25.887Z,81.30
2023-02-22T01:49:35.172Z,81.30
2023-02-22T01:49:44.489Z,81.30
2023-02-22T01:49:53.773Z,81.20
2023-02-22T01:50:03.061Z,81.20
2023-02-22T01:50:12.352Z,81.20
2023-02-22T01:50:21.627Z,81.20
2023-02-22T01:50:30.933Z,81.20
2023-02-22T01:50:40.238Z,81.10
2023-02-22T01:50:49.541Z,81.10
2023-02-22T01:50:58.831Z,81.10
2023-02-22T01:51:17.823Z,81.00
2023-02-22T01:51:26.742Z,81.00
2023-02-22T01:51:36.037Z,81.00
2023-02-22T01:51:45.323Z,80.90
2023-02-22T01:51:54.603Z,80.90
2023-02-22T01:52:03.895Z,80.90
2023-02-22T01:52:13.173Z,80.90
2023-02-22T01:52:22.482Z,80.90
2023-02-22T01:52:31.782Z,80.80
2023-02-22T01:52:41.070Z,80.80
2023-02-22T01:52:50.368Z,80.80
2023-02-22T01:52:59.653Z,80.80
2023-02-22T01:53:08.978Z,80.70
2023-02-22T01:53:27.608Z,80.70
2023-02-22T01:53:36.924Z,80.70
2023-02-22T01:53:46.208Z,80.70
2023-02-22T01:53:55.528Z,80.60
2023-02-22T01:54:04.808Z,80.60
2023-02-22T01:54:14.148Z,80.60
2023-02-22T01:54:23.450Z,80.60
2023-02-22T01:54:32.754Z,80.60
2023-02-22T01:54:42.073Z,80.50
2023-02-22T01:54:51.351Z,80.40
2023-02-22T01:55:00.641Z,80.50
2023-02-22T01:55:09.911Z,80.50
2023-02-22T01:55:19.214Z,80.50
2023-02-22T01:55:28.519Z,80.40
2023-02-22T01:55:47.119Z,80.50
2023-02-22T01:55:56.404Z,80.50
2023-02-22T01:56:05.743Z,80.50
2023-02-22T01:56:15.018Z,80.40
2023-02-22T01:56:24.292Z,80.50
2023-02-22T01:56:33.647Z,80.40
2023-02-22T01:56:43.000Z,80.30
2023-02-22T01:56:52.278Z,80.30
2023-02-22T01:57:01.578Z,80.20
2023-02-22T01:57:10.870Z,80.20
2023-02-22T01:57:20.206Z,80.20
2023-02-22T01:57:29.485Z,80.10
2023-02-22T01:57:38.808Z,80.10
2023-02-22T01:57:57.418Z,80.10
2023-02-22T01:58:06.712Z,80.10
2023-02-22T01:58:16.008Z,80.00
2023-02-22T01:58:25.319Z,80.10
2023-02-22T01:58:34.606Z,80.00
2023-02-22T01:58:43.917Z,80.00
2023-02-22T01:58:53.210Z,80.10
2023-02-22T01:59:02.495Z,79.90
2023-02-22T01:59:11.817Z,80.00
2023-02-22T01:59:21.100Z,80.00
2023-02-22T01:59:30.419Z,80.00
2023-02-22T01:59:39.759Z,80.00
2023-02-22T01:59:49.094Z,80.00
2023-02-22T01:59:58.386Z,80.10
2023-02-22T02:00:17.023Z,80.00
2023-02-22T02:00:26.330Z,80.00
2023-02-22T02:00:35.622Z,80.00
2023-02-22T02:00:44.907Z,79.90
2023-02-22T02:00:54.212Z,79.90
2023-02-22T02:01:03.497Z,79.90
2023-02-22T02:01:12.811Z,79.80
2023-02-22T02:01:22.100Z,79.80
2023-02-22T02:01:31.397Z,79.80
2023-02-22T02:01:40.696Z,79.80
2023-02-22T02:01:49.984Z,79.70
2023-02-22T02:01:59.334Z,79.70
2023-02-22T02:02:08.631Z,79.80
2023-02-22T02:02:27.226Z,79.70
2023-02-22T02:02:36.513Z,79.70
2023-02-22T02:02:45.825Z,79.70
2023-02-22T02:02:55.111Z,79.70
2023-02-22T02:03:04.399Z,79.70
2023-02-22T02:03:13.689Z,79.70
2023-02-22T02:03:22.994Z,79.80
2023-02-22T02:03:32.279Z,79.70
2023-02-22T02:03:41.576Z,79.70
2023-02-22T02:03:50.924Z,79.70
2023-02-22T02:04:00.275Z,79.70
2023-02-22T02:04:09.523Z,79.70
2023-02-22T02:04:18.783Z,79.70
2023-02-22T02:04:37.395Z,79.70
2023-02-22T02:04:46.659Z,79.70
2023-02-22T02:04:55.998Z,79.70
2023-02-22T02:05:05.324Z,79.60
2023-02-22T02:05:14.567Z,79.60
2023-02-22T02:05:23.876Z,79.50
2023-02-22T02:05:33.104Z,79.50
2023-02-22T02:05:42.404Z,79.40
2023-02-22T02:05:51.705Z,79.40
2023-02-22T02:06:00.999Z,79.50
2023-02-22T02:06:10.294Z,79.40
2023-02-22T02:06:19.591Z,79.40
2023-02-22T02:06:28.895Z,79.40
2023-02-22T02:06:47.493Z,79.40
2023-02-22T02:06:56.790Z,79.40
2023-02-22T02:07:06.079Z,79.40
2023-02-22T02:07:15.359Z,79.40
2023-02-22T02:07:24.639Z,79.50
2023-02-22T02:07:33.935Z,79.30
2023-02-22T02:07:43.235Z,79.40
2023-02-22T02:07:52.540Z,79.40
2023-02-22T02:08:01.826Z,79.30
2023-02-22T02:08:11.108Z,79.20
2023-02-22T02:08:20.422Z,79.30
2023-02-22T02:08:29.685Z,79.30
2023-02-22T02:08:39.000Z,79.20
2023-02-22T02:08:57.596Z,79.20